createdAt,value
2022-12-03T00:03:58.022Z,54.07
2022-12-03T00:09:03.146Z,56.27
2022-12-03T00:14:09.426Z,55.60
2022-12-03T00:19:16.945Z,53.47
2022-12-03T00:24:24.044Z,57.03
2022-12-03T00:29:29.006Z,57.67
2022-12-03T00:34:38.038Z,51.83
2022-12-03T00:39:43.224Z,59.33
2022-12-03T00:44:48.229Z,55.53
2022-12-03T00:49:55.882Z,55.70
2022-12-03T00:55:00.895Z,56.83
2022-12-03T01:00:07.446Z,51.97
2022-12-03T01:05:15.085Z,49.07
2022-12-03T01:10:20.342Z,48.07
2022-12-03T01:15:25.295Z,49.73
2022-12-03T01:20:33.128Z,51.83
2022-12-03T01:25:39.207Z,49.23
2022-12-03T01:30:56.377Z,50.03
2022-12-03T01:36:05.099Z,48.30
2022-12-03T01:41:11.881Z,45.00
2022-12-03T01:46:20.858Z,47.27
2022-12-03T01:51:28.665Z,45.80
2022-12-03T01:56:37.966Z,43.77
2022-12-03T02:01:43.058Z,46.40
2022-12-03T02:06:51.105Z,47.53
2022-12-03T02:11:56.611Z,50.30
2022-12-03T02:17:01.563Z,46.47
2022-12-03T02:22:19.499Z,54.57
2022-12-03T02:27:28.620Z,53.57
2022-12-03T02:32:36.810Z,49.30
2022-12-03T02:37:42.281Z,43.47
2022-12-03T02:42:50.511Z,49.27
2022-12-03T02:48:00.437Z,45.83
2022-12-03T02:53:08.679Z,49.57
2022-12-03T02:58:17.344Z,46.60
2022-12-03T03:03:23.868Z,44.47
2022-12-03T03:08:30.052Z,48.77
2022-12-03T03:13:39.706Z,41.90
2022-12-03T03:18:48.084Z,44.77
2022-12-03T03:23:53.539Z,38.10
2022-12-03T03:29:04.358Z,40.50
2022-12-03T03:34:09.349Z,41.83
2022-12-03T03:39:14.810Z,38.87
2022-12-03T03:44:22.500Z,41.60
2022-12-03T03:49:27.650Z,42.90
2022-12-03T03:54:39.994Z,47.60
2022-12-03T03:59:47.569Z,41.07
2022-12-03T04:04:53.194Z,41.43
2022-12-03T04:09:58.405Z,42.23
2022-12-03T04:15:07.187Z,39.83
2022-12-03T04:20:13.686Z,37.57
2022-12-03T04:25:32.076Z,40.10
2022-12-03T04:30:40.840Z,43.57
2022-12-03T04:35:49.487Z,43.97
2022-12-03T04:41:04.492Z,43.00
2022-12-03T04:46:12.407Z,43.90
2022-12-03T04:51:17.436Z,48.67
2022-12-03T04:56:22.508Z,47.13
2022-12-03T05:01:31.652Z,46.77
2022-12-03T05:06:37.146Z,47.13
2022-12-03T05:11:42.664Z,43.80
2022-12-03T05:16:50.361Z,47.27
2022-12-03T05:21:55.309Z,45.77
2022-12-03T05:27:00.273Z,42.70
2022-12-03T05:32:08.281Z,42.63
2022-12-03T05:37:14.579Z,44.97
2022-12-03T05:42:34.057Z,52.63
2022-12-03T05:47:42.314Z,44.10
2022-12-03T05:52:48.634Z,45.00
2022-12-03T05:57:54.066Z,45.60
2022-12-03T06:03:01.841Z,44.17
2022-12-03T06:08:07.926Z,50.03
2022-12-03T06:13:14.269Z,44.83
2022-12-03T06:18:22.666Z,41.33
2022-12-03T06:23:27.825Z,52.67
2022-12-03T06:28:32.718Z,44.17
2022-12-03T06:33:40.175Z,43.70
2022-12-03T06:38:45.329Z,45.77
2022-12-03T06:43:50.321Z,48.63
2022-12-03T06:48:57.999Z,47.70
2022-12-03T06:54:03.348Z,46.80
2022-12-03T06:59:08.560Z,42.13
2022-12-03T07:04:18.207Z,43.27
2022-12-03T07:09:25.082Z,45.80
2022-12-03T07:14:30.619Z,47.70
2022-12-03T07:19:38.430Z,45.63
2022-12-03T07:24:44.207Z,51.70
2022-12-03T07:29:49.271Z,55.10
2022-12-03T07:35:02.950Z,49.90
2022-12-03T07:40:13.524Z,51.40
2022-12-03T07:45:18.511Z,53.43
2022-12-03T07:50:28.419Z,57.73
2022-12-03T07:55:35.778Z,58.60
2022-12-03T08:00:42.311Z,62.87
2022-12-03T08:05:50.106Z,54.87
2022-12-03T08:11:00.229Z,57.20
2022-12-03T08:16:20.965Z,62.27
2022-12-03T08:21:32.876Z,57.97
2022-12-03T08:26:39.928Z,58.63
2022-12-03T08:31:46.369Z,56.30
2022-12-03T08:37:05.607Z,52.83
2022-12-03T08:42:44.095Z,65.93
2022-12-03T08:47:52.564Z,57.27
2022-12-03T08:53:08.227Z,67.67
2022-12-03T08:58:26.380Z,67.93
2022-12-03T09:03:34.642Z,65.73
2022-12-03T09:08:43.382Z,69.00
2022-12-03T09:13:49.400Z,65.53
2022-12-03T09:18:55.465Z,61.50
2022-12-03T09:24:03.259Z,66.43
2022-12-03T09:29:12.159Z,68.47
2022-12-03T09:34:17.695Z,64.17
2022-12-03T09:39:25.634Z,63.37
2022-12-03T09:44:32.557Z,63.67
2022-12-03T09:49:39.903Z,66.70
2022-12-03T09:54:47.851Z,65.50
2022-12-03T09:59:53.025Z,68.93
2022-12-03T10:04:59.038Z,66.70
2022-12-03T10:10:10.019Z,68.67
2022-12-03T10:15:39.183Z,69.83
2022-12-03T10:20:45.254Z,65.10
2022-12-03T10:25:57.887Z,67.27
2022-12-03T10:31:04.694Z,65.63
2022-12-03T10:36:25.091Z,74.07
2022-12-03T10:41:32.766Z,68.57
2022-12-03T10:46:37.838Z,71.97
2022-12-03T10:51:43.180Z,63.07
2022-12-03T10:56:52.467Z,73.50
2022-12-03T11:01:57.520Z,65.43
2022-12-03T11:07:07.472Z,72.10
2022-12-03T11:12:23.255Z,66.77
2022-12-03T11:17:53.107Z,71.07
2022-12-03T11:22:59.013Z,69.07
2022-12-03T11:28:33.903Z,70.87
2022-12-03T11:33:44.732Z,66.03
2022-12-03T11:39:02.632Z,68.93
2022-12-03T11:44:32.750Z,76.17
2022-12-03T11:49:50.732Z,72.73
2022-12-03T11:55:01.732Z,70.67
2022-12-03T12:00:22.247Z,70.13
2022-12-03T12:05:36.773Z,70.00
2022-12-03T12:10:44.012Z,69.43
2022-12-03T12:15:50.305Z,70.83
2022-12-03T12:20:57.836Z,63.17
2022-12-03T12:26:09.742Z,65.70
2022-12-03T12:31:15.326Z,61.60
2022-12-03T12:36:25.154Z,67.53
2022-12-03T12:41:30.353Z,71.73
2022-12-03T12:46:50.690Z,65.10
2022-12-03T12:51:58.429Z,68.00
2022-12-03T12:57:03.453Z,66.33
2022-12-03T13:02:37.408Z,65.97
2022-12-03T13:07:45.963Z,57.00
2022-12-03T13:12:51.087Z,60.57
2022-12-03T13:17:56.001Z,62.90
2022-12-03T13:23:03.486Z,58.03
2022-12-03T13:28:10.334Z,58.53
2022-12-03T13:33:27.266Z,59.00
2022-12-03T13:38:35.112Z,55.27
2022-12-03T13:43:44.602Z,62.37
2022-12-03T13:48:49.784Z,63.33
2022-12-03T13:53:57.747Z,87.13
2022-12-03T13:59:04.456Z,67.23
2022-12-03T14:04:09.599Z,70.23
2022-12-03T14:09:17.492Z,68.10
2022-12-03T14:14:22.466Z,83.87
2022-12-03T14:19:27.332Z,78.40
2022-12-03T14:24:34.970Z,75.23
2022-12-03T14:29:39.993Z,78.63
2022-12-03T14:34:45.194Z,78.03
2022-12-03T14:39:54.707Z,76.30
2022-12-03T14:45:00.984Z,78.93
2022-12-03T14:50:08.035Z,75.70
2022-12-03T14:55:15.615Z,81.00
2022-12-03T15:00:22.287Z,78.83
2022-12-03T15:05:28.943Z,83.33
2022-12-03T15:10:36.881Z,75.93
2022-12-03T15:15:41.848Z,83.97
2022-12-03T15:20:46.943Z,74.90
2022-12-03T15:25:54.587Z,81.17
2022-12-03T15:30:59.615Z,74.83
2022-12-03T15:36:04.592Z,78.80
2022-12-03T15:41:25.522Z,85.87
2022-12-03T15:46:31.697Z,90.03
2022-12-03T15:51:36.830Z,95.13
2022-12-03T15:56:45.378Z,82.17
2022-12-03T16:01:51.121Z,78.90
2022-12-03T16:06:59.078Z,88.83
2022-12-03T16:12:09.021Z,83.87
2022-12-03T16:17:14.181Z,94.97
2022-12-03T16:22:19.746Z,80.03
2022-12-03T16:27:27.797Z,88.77
2022-12-03T16:32:32.777Z,95.47
2022-12-03T16:37:38.097Z,78.03
2022-12-03T16:42:45.751Z,83.53
2022-12-03T16:47:50.706Z,90.30
2022-12-03T16:52:55.937Z,86.33
2022-12-03T16:58:03.539Z,75.90
2022-12-03T17:03:08.681Z,75.73
2022-12-03T17:08:13.774Z,81.27
2022-12-03T17:13:23.871Z,74.10
2022-12-03T17:18:29.042Z,69.00
2022-12-03T17:23:34.188Z,76.30
2022-12-03T17:28:42.520Z,80.23
2022-12-03T17:33:47.553Z,73.53
2022-12-03T17:38:55.664Z,74.60
2022-12-03T17:44:09.736Z,77.23
2022-12-03T17:49:16.199Z,63.40
2022-12-03T17:54:21.407Z,81.87
2022-12-03T17:59:28.980Z,72.87
2022-12-03T18:04:34.165Z,73.33
2022-12-03T18:09:39.212Z,72.70
2022-12-03T18:14:46.804Z,78.63
2022-12-03T18:19:51.938Z,74.30
2022-12-03T18:24:58.193Z,73.10
2022-12-03T18:30:06.016Z,69.93
2022-12-03T18:35:11.554Z,73.43
2022-12-03T18:40:21.616Z,72.00
2022-12-03T18:45:29.182Z,68.77
2022-12-03T18:50:34.183Z,76.70
2022-12-03T18:55:40.329Z,68.10
2022-12-03T19:00:47.929Z,69.37
2022-12-03T19:05:53.000Z,73.20
2022-12-03T19:11:02.683Z,64.80
2022-12-03T19:16:12.444Z,67.90
2022-12-03T19:21:19.234Z,67.10
2022-12-03T19:26:26.368Z,74.50
2022-12-03T19:31:34.278Z,75.50
2022-12-03T19:36:39.264Z,70.80
2022-12-03T19:41:45.153Z,75.27
2022-12-03T19:46:57.355Z,73.27
2022-12-03T19:52:02.470Z,76.73
2022-12-03T19:57:07.465Z,76.63
2022-12-03T20:02:15.401Z,79.57
2022-12-03T20:07:20.663Z,76.63
2022-12-03T20:12:27.056Z,77.00
2022-12-03T20:17:35.447Z,83.50
2022-12-03T20:22:40.681Z,82.73
2022-12-03T20:27:45.892Z,85.53
2022-12-03T20:32:54.035Z,82.83
2022-12-03T20:37:59.064Z,94.40
2022-12-03T20:43:06.373Z,84.53
2022-12-03T20:48:15.827Z,91.17
2022-12-03T20:53:25.356Z,83.13
2022-12-03T20:58:31.116Z,71.67
2022-12-03T21:03:38.833Z,78.43
2022-12-03T21:08:45.027Z,86.97
2022-12-03T21:13:52.371Z,83.37
2022-12-03T21:19:00.107Z,93.97
2022-12-03T21:24:05.062Z,80.70
2022-12-03T21:29:11.616Z,84.43
2022-12-03T21:34:19.144Z,89.10
2022-12-03T21:39:27.555Z,88.17
2022-12-03T21:44:35.270Z,83.90
2022-12-03T21:49:45.830Z,82.53
2022-12-03T21:54:50.727Z,80.37
2022-12-03T21:59:57.693Z,89.77
2022-12-03T22:05:05.365Z,75.77
2022-12-03T22:10:13.643Z,76.40
2022-12-03T22:15:19.704Z,76.07
2022-12-03T22:20:27.837Z,80.77
2022-12-03T22:25:33.691Z,78.87
2022-12-03T22:30:41.700Z,88.63
2022-12-03T22:35:57.709Z,86.87
2022-12-03T22:41:02.720Z,83.20
2022-12-03T22:46:10.559Z,76.57
2022-12-03T22:51:21.903Z,71.37
2022-12-03T22:56:28.711Z,76.57
2022-12-03T23:01:37.128Z,69.63
2022-12-03T23:06:44.931Z,77.60
2022-12-03T23:11:49.832Z,70.97
2022-12-03T23:16:54.800Z,72.07
2022-12-03T23:22:03.527Z,69.30
2022-12-03T23:27:08.556Z,68.40
2022-12-03T23:32:13.623Z,69.27
2022-12-03T23:37:21.261Z,68.63
2022-12-03T23:42:26.542Z,77.77
2022-12-03T23:47:31.596Z,76.53
2022-12-03T23:52:42.837Z,84.00
2022-12-03T23:57:48.874Z,79.10
